Time;durP1;ratioP1;P1;durP2;ratioP2;P2;SDS_P1;SDS_P2;PMS_P1;PMS_P2;Temp;Humidity;BMP_temperature;BMP_pressure;BME280_temperature;BME280_humidity;BME280_pressure;Samples;Min_cycle;Max_cycle;Signal;HPM_P1;HPM_P2
2022/11/01 00:01:58;;;;;;;27.25;12.25;;;;;;;;;;6201817;28;20042;-85
2022/11/01 00:04:59;;;;;;;25.00;12.48;;;;;;;;;;6187024;28;20085;-85
2022/11/01 00:08:01;;;;;;;28.48;11.35;;;;;;;;;;6182016;28;20138;-85
2022/11/01 00:11:06;;;;;;;21.15;11.35;;;;;;;;;;6162438;28;20410;-87
2022/11/01 00:14:12;;;;;;;18.88;10.30;;;;;;;;;;6193552;28;20062;-85
2022/11/01 00:17:14;;;;;;;18.67;10.02;;;;;;;;;;6198298;28;20051;-85
2022/11/01 00:20:16;;;;;;;20.15;10.38;;;;;;;;;;6199529;28;20054;-87
2022/11/01 00:23:17;;;;;;;22.35;11.00;;;;;;;;;;6202239;28;20066;-87
2022/11/01 00:26:21;;;;;;;28.23;11.15;;;;;;;;;;6136257;28;20089;-86
2022/11/01 00:29:23;;;;;;;21.02;11.50;;;;;;;;;;6197098;28;20055;-85
2022/11/01 00:32:25;;;;;;;19.90;10.65;;;;;;;;;;6135193;28;20043;-85
2022/11/01 00:35:26;;;;;;;21.90;11.35;;;;;;;;;;6133906;28;20095;-88
2022/11/01 00:38:28;;;;;;;20.45;10.90;;;;;;;;;;6212985;28;20044;-87
2022/11/01 00:41:30;;;;;;;22.92;10.50;;;;;;;;;;6189706;28;20043;-86
2022/11/01 00:44:31;;;;;;;20.83;10.80;;;;;;;;;;6194197;28;20073;-85
2022/11/01 00:47:33;;;;;;;22.42;11.35;;;;;;;;;;6199186;28;20051;-87
2022/11/01 00:50:35;;;;;;;24.95;11.98;;;;;;;;;;6137978;28;20051;-86
2022/11/01 00:53:36;;;;;;;24.63;11.55;;;;;;;;;;6197515;28;20051;-87
2022/11/01 00:56:38;;;;;;;20.67;10.95;;;;;;;;;;6137631;28;20051;-88
2022/11/01 00:59:40;;;;;;;21.73;10.70;;;;;;;;;;6139675;28;20055;-87
2022/11/01 01:02:41;;;;;;;18.75;10.38;;;;;;;;;;6180253;28;20132;-88
2022/11/01 01:05:43;;;;;;;19.08;10.25;;;;;;;;;;6238660;28;20048;-85
2022/11/01 01:08:45;;;;;;;20.40;10.35;;;;;;;;;;6137260;28;20086;-85
2022/11/01 01:11:46;;;;;;;16.77;9.70;;;;;;;;;;6156845;28;20039;-85
2022/11/01 01:14:48;;;;;;;23.95;10.73;;;;;;;;;;6140210;28;20035;-85
2022/11/01 01:17:51;;;;;;;21.33;11.02;;;;;;;;;;6143450;28;20058;-87
2022/11/01 01:21:00;;;;;;;20.98;10.02;;;;;;;;;;6133460;28;20062;-86
2022/11/01 01:24:01;;;;;;;17.52;9.60;;;;;;;;;;6157469;28;20055;-88
2022/11/01 01:27:03;;;;;;;16.65;9.43;;;;;;;;;;6156566;28;20067;-88
2022/11/01 01:30:06;;;;;;;17.67;10.15;;;;;;;;;;6170418;28;20142;-84
2022/11/01 01:33:08;;;;;;;;;;;;;;;;;;6149177;28;20129;-86
2022/11/01 01:36:10;;;;;;;16.27;9.23;;;;;;;;;;6147056;28;20285;-86
2022/11/01 01:39:12;;;;;;;19.73;10.27;;;;;;;;;;6143955;28;20659;-85
2022/11/01 01:42:36;;;;;;;21.10;10.85;;;;;;;;;;6170432;28;20047;-87
2022/11/01 01:45:40;;;;;;;22.98;11.63;;;;;;;;;;6157582;28;20092;-86
2022/11/01 01:48:45;;;;;;;21.63;10.73;;;;;;;;;;6202124;28;20745;-84
2022/11/01 01:51:47;;;;;;;18.35;9.48;;;;;;;;;;6221490;28;20188;-85
2022/11/01 01:54:49;;;;;;;25.83;10.93;;;;;;;;;;6210898;28;20096;-86
2022/11/01 01:57:53;;;;;;;22.33;10.88;;;;;;;;;;6228278;28;20076;-84
2022/11/01 02:00:54;;;;;;;;;;;;;;;;;;6224125;28;20053;-84
2022/11/01 02:03:56;;;;;;;20.42;10.20;;;;;;;;;;6228781;28;20440;-84
2022/11/01 02:06:59;;;;;;;23.15;10.70;;;;;;;;;;6218853;28;20058;-84
2022/11/01 02:10:01;;;;;;;21.27;10.57;;;;;;;;;;6242465;28;20050;-85
2022/11/01 02:13:13;;;;;;;19.00;10.50;;;;;;;;;;6201397;28;20048;-85
2022/11/01 02:16:45;;;;;;;18.83;10.40;;;;;;;;;;6229064;28;20501;-84
2022/11/01 02:20:41;;;;;;;19.60;10.63;;;;;;;;;;6228418;28;20080;-84
2022/11/01 02:24:00;;;;;;;20.92;10.18;;;;;;;;;;6161592;28;20044;-86
2022/11/01 02:27:21;;;;;;;19.02;9.50;;;;;;;;;;6183691;28;20124;-86
2022/11/01 02:30:23;;;;;;;18.85;10.32;;;;;;;;;;6226506;28;20402;-87
2022/11/01 02:33:41;;;;;;;20.67;11.50;;;;;;;;;;6242342;28;20051;-87
2022/11/01 02:36:51;;;;;;;23.98;11.50;;;;;;;;;;6249554;28;20053;-86
2022/11/01 02:39:59;;;;;;;22.08;12.25;;;;;;;;;;6171095;28;20508;-84
2022/11/01 02:43:07;;;;;;;23.42;12.27;;;;;;;;;;6249441;28;20058;-83
2022/11/01 02:49:38;;;;;;;29.13;14.00;;;;;;;;;;6224265;28;20050;-82
2022/11/01 02:52:40;;;;;;;27.67;12.63;;;;;;;;;;6240910;28;20051;-83
2022/11/01 02:55:42;;;;;;;22.80;12.70;;;;;;;;;;6225665;28;20043;-82
2022/11/01 02:58:47;;;;;;;22.70;12.83;;;;;;;;;;6239068;28;20049;-82
2022/11/01 03:02:03;;;;;;;22.60;11.88;;;;;;;;;;6163284;28;20130;-82
2022/11/01 03:05:18;;;;;;;27.02;13.13;;;;;;;;;;6230388;28;20050;-82
2022/11/01 03:08:24;;;;;;;25.10;13.15;;;;;;;;;;6244097;28;20062;-82
2022/11/01 03:11:35;;;;;;;28.67;12.00;;;;;;;;;;6227789;28;20053;-83
2022/11/01 03:14:53;;;;;;;21.55;11.88;;;;;;;;;;6240907;28;20050;-82
2022/11/01 03:18:04;;;;;;;20.23;11.60;;;;;;;;;;6238093;28;20065;-82
2022/11/01 03:21:16;;;;;;;22.48;11.93;;;;;;;;;;6241417;28;20061;-81
2022/11/01 03:24:26;;;;;;;23.08;11.25;;;;;;;;;;6246928;28;20043;-83
2022/11/01 03:27:32;;;;;;;21.83;11.27;;;;;;;;;;6234265;28;20053;-82
2022/11/01 03:30:36;;;;;;;18.17;10.65;;;;;;;;;;6241047;28;20069;-82
2022/11/01 03:33:43;;;;;;;17.48;11.07;;;;;;;;;;6228299;28;20062;-83
2022/11/01 03:36:50;;;;;;;19.80;11.48;;;;;;;;;;6157611;28;20115;-82
2022/11/01 03:39:53;;;;;;;23.67;12.35;;;;;;;;;;6166862;28;20425;-84
2022/11/01 03:43:01;;;;;;;21.50;11.45;;;;;;;;;;6158985;28;20042;-85
2022/11/01 03:46:03;;;;;;;23.83;11.77;;;;;;;;;;6226161;28;20047;-83
2022/11/01 03:49:05;;;;;;;26.38;12.10;;;;;;;;;;6230439;28;20161;-83
2022/11/01 03:52:07;;;;;;;23.48;11.43;;;;;;;;;;6245981;28;20044;-83
2022/11/01 03:55:19;;;;;;;22.30;11.60;;;;;;;;;;6218099;28;20039;-83
2022/11/01 03:58:20;;;;;;;21.58;11.25;;;;;;;;;;6237197;28;20096;-83
2022/11/01 04:01:22;;;;;;;19.58;11.35;;;;;;;;;;6240221;28;20047;-83
2022/11/01 04:04:24;;;;;;;20.23;12.02;;;;;;;;;;6208430;28;20175;-85
2022/11/01 04:07:25;;;;;;;21.75;11.40;;;;;;;;;;6159759;28;20054;-84
2022/11/01 04:10:28;;;;;;;20.63;11.13;;;;;;;;;;6255409;28;20045;-82
2022/11/01 04:13:29;;;;;;;21.38;11.50;;;;;;;;;;6249370;28;20052;-83
2022/11/01 04:23:34;;;;;;;22.42;11.32;;;;;;;;;;6190036;28;20077;-82
2022/11/01 04:26:36;;;;;;;22.25;11.02;;;;;;;;;;6205517;28;20114;-83
2022/11/01 04:29:38;;;;;;;22.07;12.00;;;;;;;;;;6146438;28;20069;-84
2022/11/01 04:32:43;;;;;;;21.70;11.38;;;;;;;;;;6126269;28;20047;-83
2022/11/01 04:35:46;;;;;;;23.48;12.32;;;;;;;;;;6156800;28;20057;-82
2022/11/01 04:38:50;;;;;;;25.40;12.05;;;;;;;;;;6142251;28;20062;-83
2022/11/01 04:41:53;;;;;;;20.27;11.82;;;;;;;;;;6139069;28;20399;-84
2022/11/01 04:44:55;;;;;;;21.27;12.13;;;;;;;;;;6133829;28;20405;-82
2022/11/01 04:48:15;;;;;;;23.00;11.95;;;;;;;;;;6149900;28;20441;-82
2022/11/01 04:51:18;;;;;;;21.48;12.15;;;;;;;;;;6154576;28;20057;-84
2022/11/01 04:54:20;;;;;;;23.67;13.18;;;;;;;;;;6142706;28;20051;-84
2022/11/01 04:57:22;;;;;;;22.33;12.15;;;;;;;;;;6137269;28;20063;-82
2022/11/01 05:00:24;;;;;;;21.60;10.98;;;;;;;;;;6126724;28;20050;-83
2022/11/01 05:03:26;;;;;;;21.05;10.95;;;;;;;;;;6154903;28;20062;-83
2022/11/01 05:06:28;;;;;;;19.77;10.30;;;;;;;;;;6200212;28;20051;-83
2022/11/01 05:09:32;;;;;;;21.92;10.98;;;;;;;;;;6194174;28;20047;-84
2022/11/01 05:12:34;;;;;;;19.20;10.93;;;;;;;;;;6203817;28;20054;-83
2022/11/01 05:15:36;;;;;;;19.85;10.35;;;;;;;;;;6216010;28;20410;-84
2022/11/01 05:18:49;;;;;;;20.38;11.43;;;;;;;;;;6215009;28;20492;-85
2022/11/01 05:21:52;;;;;;;23.08;11.30;;;;;;;;;;6186029;28;20055;-85
2022/11/01 05:24:54;;;;;;;19.77;9.93;;;;;;;;;;6204047;28;20080;-84
2022/11/01 05:28:10;;;;;;;19.63;10.60;;;;;;;;;;6191072;28;20047;-86
2022/11/01 05:31:12;;;;;;;17.77;11.20;;;;;;;;;;6211120;28;20062;-86
2022/11/01 05:34:13;;;;;;;19.38;10.95;;;;;;;;;;6215583;28;20126;-84
2022/11/01 05:37:15;;;;;;;20.35;10.73;;;;;;;;;;6188319;28;20369;-86
2022/11/01 05:40:18;;;;;;;23.50;11.87;;;;;;;;;;6216989;28;20113;-84
2022/11/01 05:43:20;;;;;;;19.97;11.63;;;;;;;;;;6188492;28;20043;-85
2022/11/01 05:46:22;;;;;;;20.73;12.20;;;;;;;;;;6159082;28;20055;-86
2022/11/01 05:49:23;;;;;;;23.92;12.80;;;;;;;;;;6129910;28;20051;-81
2022/11/01 05:52:26;;;;;;;26.05;11.90;;;;;;;;;;6149208;28;20567;-84
2022/11/01 05:55:28;;;;;;;24.00;11.98;;;;;;;;;;6194102;28;20043;-83
2022/11/01 05:58:30;;;;;;;23.42;12.50;;;;;;;;;;6213149;28;21323;-83
2022/11/01 06:01:31;;;;;;;20.98;12.88;;;;;;;;;;6212175;28;20138;-83
2022/11/01 06:04:33;;;;;;;22.70;13.00;;;;;;;;;;6133299;28;20109;-82
2022/11/01 06:07:35;;;;;;;23.63;12.30;;;;;;;;;;6143799;28;20062;-83
2022/11/01 06:10:37;;;;;;;23.53;12.33;;;;;;;;;;6140487;28;20046;-82
2022/11/01 06:13:39;;;;;;;28.75;13.00;;;;;;;;;;6246578;28;20045;-85
2022/11/01 06:16:43;;;;;;;31.85;14.23;;;;;;;;;;6258830;28;20080;-84
2022/11/01 06:19:45;;;;;;;33.67;15.20;;;;;;;;;;6264982;28;20127;-85
2022/11/01 06:22:47;;;;;;;25.45;14.50;;;;;;;;;;6262758;28;20054;-85
2022/11/01 06:25:49;;;;;;;25.15;14.18;;;;;;;;;;6253597;28;20049;-83
2022/11/01 06:28:51;;;;;;;24.25;11.93;;;;;;;;;;6254906;28;20055;-83
2022/11/01 06:31:53;;;;;;;21.45;12.20;;;;;;;;;;6231494;28;20071;-84
2022/11/01 06:34:54;;;;;;;22.60;11.77;;;;;;;;;;6252398;28;20491;-85
2022/11/01 06:38:07;;;;;;;24.77;12.20;;;;;;;;;;6258422;28;20072;-85
2022/11/01 06:41:10;;;;;;;22.10;11.93;;;;;;;;;;6260486;28;20041;-83
2022/11/01 06:44:13;;;;;;;21.05;11.93;;;;;;;;;;6261212;28;20411;-86
2022/11/01 06:47:14;;;;;;;;;;;;;;;;;;6276855;28;20056;-85
2022/11/01 06:50:16;;;;;;;20.55;11.02;;;;;;;;;;6258110;28;19942;-86
2022/11/01 06:53:18;;;;;;;17.77;10.10;;;;;;;;;;6259111;28;20641;-86
2022/11/01 06:56:20;;;;;;;18.80;10.30;;;;;;;;;;6259376;28;20053;-85
2022/11/01 06:59:22;;;;;;;19.05;9.25;;;;;;;;;;6273982;28;20037;-85
2022/11/01 07:02:24;;;;;;;16.00;10.40;;;;;;;;;;6271405;28;20049;-85
2022/11/01 07:05:35;;;;;;;17.63;9.63;;;;;;;;;;6251761;28;20047;-85
2022/11/01 07:08:38;;;;;;;16.35;8.80;;;;;;;;;;6269669;28;20045;-85
2022/11/01 07:11:40;;;;;;;17.70;9.43;;;;;;;;;;6247249;28;20041;-86
2022/11/01 07:14:41;;;;;;;15.85;8.43;;;;;;;;;;6163521;28;20043;-87
2022/11/01 07:17:44;;;;;;;14.85;8.77;;;;;;;;;;6132123;28;20176;-85
2022/11/01 07:20:46;;;;;;;17.65;8.45;;;;;;;;;;6150901;28;20052;-86
2022/11/01 07:23:48;;;;;;;14.27;8.18;;;;;;;;;;6129743;28;20051;-85
2022/11/01 07:26:49;;;;;;;13.20;7.97;;;;;;;;;;6139984;28;20072;-86
2022/11/01 07:29:51;;;;;;;13.38;8.05;;;;;;;;;;6148304;28;20059;-85
2022/11/01 07:32:57;;;;;;;12.95;8.35;;;;;;;;;;6155072;28;20053;-86
2022/11/01 07:36:01;;;;;;;13.80;7.75;;;;;;;;;;6159549;28;20152;-86
2022/11/01 07:39:03;;;;;;;14.23;7.63;;;;;;;;;;6155819;28;20485;-83
2022/11/01 07:42:04;;;;;;;10.98;7.25;;;;;;;;;;6154575;28;20043;-86
2022/11/01 07:45:07;;;;;;;11.25;6.88;;;;;;;;;;6138074;28;20166;-83
2022/11/01 07:48:15;;;;;;;11.10;6.70;;;;;;;;;;6132232;28;20520;-84
2022/11/01 07:51:17;;;;;;;13.45;6.90;;;;;;;;;;6121781;28;20035;-85
2022/11/01 07:54:19;;;;;;;10.20;6.45;;;;;;;;;;6162604;28;20505;-84
2022/11/01 07:57:20;;;;;;;11.32;6.50;;;;;;;;;;6136504;28;20053;-86
2022/11/01 08:00:22;;;;;;;10.05;6.38;;;;;;;;;;6147389;28;20062;-84
2022/11/01 08:03:25;;;;;;;11.95;6.65;;;;;;;;;;6153886;28;20051;-88
2022/11/01 08:06:27;;;;;;;10.13;6.47;;;;;;;;;;6154900;28;20168;-85
2022/11/01 08:09:29;;;;;;;9.63;5.90;;;;;;;;;;6154868;28;20054;-86
2022/11/01 08:12:31;;;;;;;8.32;5.30;;;;;;;;;;6139291;28;20925;-86
2022/11/01 08:15:33;;;;;;;8.40;5.07;;;;;;;;;;6157978;28;20834;-85
2022/11/01 08:18:35;;;;;;;8.88;5.25;;;;;;;;;;6142837;28;20047;-84
2022/11/01 08:21:36;;;;;;;8.25;4.68;;;;;;;;;;6158132;28;20038;-85
2022/11/01 08:24:38;;;;;;;10.50;5.38;;;;;;;;;;6147090;28;20050;-88
2022/11/01 08:27:40;;;;;;;6.55;4.45;;;;;;;;;;6127613;28;20046;-88
2022/11/01 08:30:43;;;;;;;5.25;4.40;;;;;;;;;;6206532;28;20158;-83
2022/11/01 08:33:45;;;;;;;7.82;4.43;;;;;;;;;;6193426;28;20043;-84
2022/11/01 08:36:47;;;;;;;9.38;4.57;;;;;;;;;;6204297;28;20074;-85
2022/11/01 08:39:48;;;;;;;6.78;4.38;;;;;;;;;;6186408;28;20055;-83
2022/11/01 08:42:50;;;;;;;6.03;4.30;;;;;;;;;;6214683;28;20108;-87
2022/11/01 08:45:51;;;;;;;6.28;3.55;;;;;;;;;;6173041;28;20502;-83
2022/11/01 08:48:55;;;;;;;6.70;4.10;;;;;;;;;;6200794;28;20043;-82
2022/11/01 08:51:56;;;;;;;4.55;3.08;;;;;;;;;;6200730;28;20070;-83
2022/11/01 08:54:58;;;;;;;6.07;3.08;;;;;;;;;;6197515;28;20046;-82
2022/11/01 08:58:00;;;;;;;4.25;3.00;;;;;;;;;;6215916;28;20043;-87
2022/11/01 09:01:02;;;;;;;7.53;4.45;;;;;;;;;;6143302;28;20043;-87
2022/11/01 09:04:04;;;;;;;4.65;2.80;;;;;;;;;;6140775;28;20122;-86
2022/11/01 09:07:06;;;;;;;6.13;3.10;;;;;;;;;;6209776;28;20144;-84
2022/11/01 09:10:08;;;;;;;5.00;2.67;;;;;;;;;;6155037;28;20049;-83
2022/11/01 09:13:10;;;;;;;7.15;2.95;;;;;;;;;;6134465;28;20057;-84
2022/11/01 09:16:12;;;;;;;6.05;2.72;;;;;;;;;;6142642;28;20050;-84
2022/11/01 09:19:14;;;;;;;3.00;2.53;;;;;;;;;;6139324;28;20053;-85
2022/11/01 09:22:16;;;;;;;6.75;2.65;;;;;;;;;;6146657;28;20047;-84
2022/11/01 09:25:19;;;;;;;5.00;2.85;;;;;;;;;;6133351;28;20680;-83
2022/11/01 09:28:20;;;;;;;;;;;;;;;;;;6148123;28;20061;-84
2022/11/01 09:31:22;;;;;;;3.78;2.17;;;;;;;;;;6154179;28;19937;-84
2022/11/01 09:34:23;;;;;;;4.80;2.80;;;;;;;;;;6153586;28;20130;-83
2022/11/01 09:37:25;;;;;;;4.35;2.00;;;;;;;;;;6153119;28;20054;-83
2022/11/01 09:40:37;;;;;;;4.28;1.90;;;;;;;;;;6147953;28;20511;-83
2022/11/01 09:43:43;;;;;;;5.43;1.70;;;;;;;;;;6134829;28;20057;-86
2022/11/01 09:46:51;;;;;;;4.90;1.50;;;;;;;;;;6136309;28;20054;-84
2022/11/01 09:50:17;;;;;;;4.30;1.60;;;;;;;;;;6138122;28;20046;-89
2022/11/01 09:53:27;;;;;;;5.80;1.48;;;;;;;;;;6158615;28;20466;-87
2022/11/01 09:56:40;;;;;;;2.85;1.48;;;;;;;;;;6131092;28;20047;-85
2022/11/01 10:00:03;;;;;;;2.67;1.20;;;;;;;;;;6135156;28;20532;-84
2022/11/01 10:03:13;;;;;;;8.50;2.72;;;;;;;;;;6153557;28;20502;-85
2022/11/01 10:06:21;;;;;;;2.47;1.70;;;;;;;;;;6126554;28;20062;-83
2022/11/01 10:09:29;;;;;;;7.05;2.50;;;;;;;;;;6136966;28;20061;-85
2022/11/01 10:12:59;;;;;;;2.67;1.20;;;;;;;;;;6123113;28;20168;-85
2022/11/01 10:16:19;;;;;;;4.45;1.65;;;;;;;;;;6159135;28;20054;-86
2022/11/01 10:19:22;;;;;;;3.33;1.30;;;;;;;;;;6143832;28;20056;-83
2022/11/01 10:22:31;;;;;;;1.33;0.93;;;;;;;;;;6157457;28;20051;-82
2022/11/01 10:25:36;;;;;;;1.38;0.90;;;;;;;;;;6159164;28;20063;-83
2022/11/01 10:29:01;;;;;;;1.25;0.98;;;;;;;;;;6160731;28;20055;-83
2022/11/01 10:32:04;;;;;;;4.30;1.10;;;;;;;;;;6156190;28;20122;-84
2022/11/01 10:35:14;;;;;;;7.20;1.33;;;;;;;;;;6159361;28;20061;-83
2022/11/01 10:38:18;;;;;;;4.05;0.90;;;;;;;;;;6138152;28;20208;-83
2022/11/01 10:41:41;;;;;;;2.80;1.02;;;;;;;;;;6157524;28;20043;-83
2022/11/01 10:44:47;;;;;;;2.58;0.80;;;;;;;;;;6140495;28;20050;-85
2022/11/01 10:47:55;;;;;;;1.50;1.08;;;;;;;;;;6159146;28;20180;-85
2022/11/01 10:51:00;;;;;;;3.83;1.20;;;;;;;;;;6161789;28;20045;-85
2022/11/01 10:54:04;;;;;;;2.65;1.20;;;;;;;;;;6160800;28;20047;-87
2022/11/01 10:57:34;;;;;;;0.90;0.70;;;;;;;;;;6145908;28;20047;-87
2022/11/01 11:00:40;;;;;;;2.95;0.98;;;;;;;;;;6148906;28;20055;-85
2022/11/01 11:03:44;;;;;;;2.63;1.48;;;;;;;;;;6157945;28;20042;-85
2022/11/01 11:06:45;;;;;;;6.00;0.90;;;;;;;;;;6154684;28;20809;-85
2022/11/01 11:09:49;;;;;;;1.88;0.50;;;;;;;;;;6138765;28;20414;-85
2022/11/01 11:13:03;;;;;;;2.05;0.70;;;;;;;;;;6225057;28;20070;-86
2022/11/01 11:16:15;;;;;;;2.97;0.82;;;;;;;;;;6238057;28;20047;-85
2022/11/01 11:19:29;;;;;;;2.88;0.90;;;;;;;;;;6157868;28;20038;-86
2022/11/01 11:22:36;;;;;;;2.42;0.70;;;;;;;;;;6242925;28;20051;-86
2022/11/01 11:25:40;;;;;;;0.82;0.30;;;;;;;;;;6223903;28;20053;-85
2022/11/01 11:28:46;;;;;;;1.52;0.55;;;;;;;;;;6224894;28;20516;-87
2022/11/01 11:31:55;;;;;;;2.00;0.57;;;;;;;;;;6223999;28;20421;-86
2022/11/01 11:35:16;;;;;;;1.20;0.57;;;;;;;;;;6225215;28;20051;-86
2022/11/01 11:38:17;;;;;;;2.05;0.65;;;;;;;;;;6241667;28;20061;-85
2022/11/01 11:41:31;;;;;;;3.65;0.43;;;;;;;;;;6224721;28;20046;-86
2022/11/01 11:44:33;;;;;;;3.13;0.60;;;;;;;;;;6220616;28;20058;-88
2022/11/01 11:47:39;;;;;;;0.95;0.60;;;;;;;;;;6216165;28;20058;-86
2022/11/01 11:50:42;;;;;;;2.25;0.77;;;;;;;;;;6240094;28;20073;-87
2022/11/01 11:54:02;;;;;;;1.95;0.80;;;;;;;;;;6161220;28;20050;-88
2022/11/01 11:57:16;;;;;;;0.40;0.40;;;;;;;;;;6245926;28;20047;-88
2022/11/01 12:00:23;;;;;;;1.52;0.70;;;;;;;;;;6237600;28;20050;-87
2022/11/01 12:03:25;;;;;;;2.00;0.60;;;;;;;;;;6233411;28;20043;-87
2022/11/01 12:06:28;;;;;;;5.27;2.10;;;;;;;;;;6232042;28;20053;-89
2022/11/01 12:09:43;;;;;;;0.65;0.50;;;;;;;;;;6236181;28;20049;-88
2022/11/01 12:12:51;;;;;;;1.33;0.50;;;;;;;;;;6231639;28;20067;-88
2022/11/01 12:16:11;;;;;;;1.45;0.55;;;;;;;;;;6258735;28;20043;-88
2022/11/01 12:19:30;;;;;;;1.27;0.43;;;;;;;;;;6245555;28;20051;-86
2022/11/01 12:22:33;;;;;;;1.08;0.70;;;;;;;;;;6266376;28;20052;-91
2022/11/01 12:25:37;;;;;;;0.90;0.52;;;;;;;;;;6221501;28;20525;-90
2022/11/01 12:28:46;;;;;;;3.60;0.70;;;;;;;;;;6202370;28;20054;-89
2022/11/01 12:31:48;;;;;;;1.23;0.70;;;;;;;;;;6208797;28;20043;-89
2022/11/01 12:34:52;;;;;;;1.70;0.98;;;;;;;;;;6214888;28;20062;-88
2022/11/01 12:38:22;;;;;;;0.98;0.47;;;;;;;;;;6218664;28;20420;-89
2022/11/01 12:41:34;;;;;;;0.98;0.50;;;;;;;;;;6192768;28;20405;-88
2022/11/01 12:44:43;;;;;;;3.85;0.60;;;;;;;;;;6219799;28;20188;-87
2022/11/01 12:47:51;;;;;;;2.92;0.70;;;;;;;;;;6203884;28;20512;-89
2022/11/01 12:51:12;;;;;;;3.33;1.00;;;;;;;;;;6237825;28;20058;-88
2022/11/01 12:54:19;;;;;;;2.55;0.65;;;;;;;;;;6223036;28;20046;-89
2022/11/01 12:57:21;;;;;;;1.17;0.55;;;;;;;;;;6220739;28;20051;-86
2022/11/01 13:00:34;;;;;;;1.55;0.70;;;;;;;;;;6160204;28;20056;-87
2022/11/01 13:03:41;;;;;;;1.73;0.80;;;;;;;;;;6240703;28;20061;-85
2022/11/01 13:07:12;;;;;;;1.27;0.60;;;;;;;;;;6254339;28;20102;-84
2022/11/01 13:10:45;;;;;;;1.75;0.50;;;;;;;;;;6265701;28;20052;-84
2022/11/01 13:14:13;;;;;;;3.40;0.60;;;;;;;;;;6268952;28;20048;-84
2022/11/01 13:17:30;;;;;;;0.55;0.32;;;;;;;;;;6221477;28;22702;-85
2022/11/01 13:20:43;;;;;;;1.00;0.40;;;;;;;;;;6253748;28;20504;-85
2022/11/01 13:23:52;;;;;;;3.17;0.60;;;;;;;;;;6244261;28;20032;-86
2022/11/01 13:27:15;;;;;;;2.33;1.10;;;;;;;;;;6266905;28;20057;-85
2022/11/01 13:30:19;;;;;;;2.92;0.50;;;;;;;;;;6151372;28;20111;-84
2022/11/01 13:33:33;;;;;;;0.80;0.43;;;;;;;;;;6131868;28;20039;-84
2022/11/01 13:37:18;;;;;;;1.75;0.60;;;;;;;;;;6135786;28;20578;-84
2022/11/01 13:40:28;;;;;;;2.40;0.85;;;;;;;;;;6135323;28;20051;-83
2022/11/01 13:43:38;;;;;;;2.58;0.63;;;;;;;;;;6140375;28;20052;-83
2022/11/01 13:46:43;;;;;;;2.72;0.63;;;;;;;;;;6204810;28;20074;-84
2022/11/01 13:50:06;;;;;;;1.88;0.63;;;;;;;;;;6151918;28;20058;-82
2022/11/01 13:53:43;;;;;;;1.20;0.52;;;;;;;;;;6165438;28;20632;-83
2022/11/01 13:56:59;;;;;;;1.67;0.60;;;;;;;;;;6079671;28;20054;-84
2022/11/01 14:00:05;;;;;;;1.70;0.60;;;;;;;;;;6146560;28;20055;-83
2022/11/01 14:03:23;;;;;;;1.15;0.50;;;;;;;;;;6157183;28;20505;-83
2022/11/01 14:06:26;;;;;;;;;;;;;;;;;;6142524;28;20046;-83
2022/11/01 14:09:30;;;;;;;4.40;0.80;;;;;;;;;;6155002;23;20296;-86
2022/11/01 14:12:38;;;;;;;1.77;0.50;;;;;;;;;;6076800;28;20072;-86
2022/11/01 14:16:00;;;;;;;1.63;0.50;;;;;;;;;;6114390;28;20421;-87
2022/11/01 14:19:02;;;;;;;1.00;0.70;;;;;;;;;;6112566;28;20052;-87
2022/11/01 14:22:28;;;;;;;5.43;2.90;;;;;;;;;;6112585;28;20048;-86
2022/11/01 14:25:31;;;;;;;5.43;1.20;;;;;;;;;;6103704;28;20154;-85
2022/11/01 14:28:33;;;;;;;4.53;1.27;;;;;;;;;;6108600;28;20059;-86
2022/11/01 14:31:35;;;;;;;3.22;0.85;;;;;;;;;;6116972;28;20139;-86
2022/11/01 14:34:38;;;;;;;2.15;0.68;;;;;;;;;;6113111;28;20057;-86
2022/11/01 14:37:47;;;;;;;5.45;0.90;;;;;;;;;;6154869;28;20085;-85
2022/11/01 14:40:53;;;;;;;2.05;0.70;;;;;;;;;;6112509;28;20043;-85
2022/11/01 14:44:01;;;;;;;2.88;0.65;;;;;;;;;;6197235;28;20493;-86
2022/11/01 14:47:26;;;;;;;4.68;1.20;;;;;;;;;;6122445;28;20186;-86
2022/11/01 14:50:56;;;;;;;2.13;0.60;;;;;;;;;;6170729;28;20051;-85
2022/11/01 14:54:19;;;;;;;3.50;0.60;;;;;;;;;;6186408;28;20166;-87
2022/11/01 14:57:27;;;;;;;;;;;;;;;;;;6107057;28;20047;-86
2022/11/01 15:00:31;;;;;;;4.07;0.52;;;;;;;;;;6093058;28;19940;-86
2022/11/01 15:03:33;;;;;;;1.52;0.60;;;;;;;;;;6089129;28;20062;-85
2022/11/01 15:06:43;;;;;;;2.35;0.70;;;;;;;;;;6054075;28;20051;-86
2022/11/01 15:10:14;;;;;;;2.80;0.47;;;;;;;;;;6112108;28;20083;-85
2022/11/01 15:13:18;;;;;;;4.32;0.65;;;;;;;;;;6111205;28;20098;-86
2022/11/01 15:16:22;;;;;;;4.05;0.80;;;;;;;;;;6127398;28;20083;-85
2022/11/01 15:19:29;;;;;;;2.05;0.60;;;;;;;;;;6120205;28;20522;-86
2022/11/01 15:22:32;;;;;;;3.45;0.90;;;;;;;;;;6112956;28;20058;-86
2022/11/01 15:25:34;;;;;;;3.15;0.70;;;;;;;;;;6129485;28;20044;-87
2022/11/01 15:28:40;;;;;;;2.42;0.63;;;;;;;;;;6109920;28;20567;-86
2022/11/01 15:31:48;;;;;;;3.88;1.65;;;;;;;;;;6106682;28;20059;-85
2022/11/01 15:34:54;;;;;;;4.68;1.65;;;;;;;;;;6099333;28;20074;-85
2022/11/01 15:37:56;;;;;;;8.20;2.40;;;;;;;;;;6079135;28;20125;-86
2022/11/01 15:41:17;;;;;;;4.28;1.20;;;;;;;;;;6121863;28;20051;-87
2022/11/01 15:44:24;;;;;;;7.20;0.90;;;;;;;;;;6106622;28;20587;-85
2022/11/01 15:47:27;;;;;;;2.38;0.70;;;;;;;;;;6111858;28;20436;-86
2022/11/01 15:50:34;;;;;;;10.15;2.00;;;;;;;;;;6080464;28;20097;-86
2022/11/01 15:53:37;;;;;;;7.45;1.40;;;;;;;;;;6109479;28;20048;-86
2022/11/01 15:56:45;;;;;;;2.70;1.00;;;;;;;;;;6110575;28;20048;-86
2022/11/01 15:59:53;;;;;;;5.60;1.00;;;;;;;;;;6101559;28;20077;-86
2022/11/01 16:03:07;;;;;;;6.13;1.00;;;;;;;;;;6108589;28;20047;-86
2022/11/01 16:06:12;;;;;;;;;;;;;;;;;;6093880;28;20039;-86
2022/11/01 16:09:39;;;;;;;3.00;0.82;;;;;;;;;;6190906;28;20301;-86
2022/11/01 16:12:44;;;;;;;3.83;1.00;;;;;;;;;;6083126;28;20050;-86
2022/11/01 16:15:59;;;;;;;5.90;1.27;;;;;;;;;;6257348;23;20136;-89
2022/11/01 16:19:01;;;;;;;2.88;0.73;;;;;;;;;;6234483;28;20045;-90
2022/11/01 16:22:27;;;;;;;2.58;0.60;;;;;;;;;;6225419;28;20181;-89
2022/11/01 16:25:32;;;;;;;4.72;0.90;;;;;;;;;;6222082;28;20092;-90
2022/11/01 16:28:39;;;;;;;2.55;0.85;;;;;;;;;;6223946;28;20185;-89
2022/11/01 16:31:41;;;;;;;2.13;0.85;;;;;;;;;;6204450;28;20049;-91
2022/11/01 16:34:44;;;;;;;22.95;9.32;;;;;;;;;;6185090;28;20042;-90
2022/11/01 16:37:46;;;;;;;11.60;4.03;;;;;;;;;;6181879;28;20515;-91
2022/11/01 16:40:57;;;;;;;6.80;3.30;;;;;;;;;;6200121;28;20046;-90
2022/11/01 16:44:01;;;;;;;5.32;2.15;;;;;;;;;;6200104;28;20053;-90
2022/11/01 16:47:02;;;;;;;8.10;2.20;;;;;;;;;;6194265;28;20042;-90
2022/11/01 16:50:14;;;;;;;3.67;1.90;;;;;;;;;;6193923;28;20050;-90
2022/11/01 16:53:15;;;;;;;7.15;2.60;;;;;;;;;;6181803;28;20106;-90
2022/11/01 16:56:24;;;;;;;3.83;1.15;;;;;;;;;;6216286;28;20053;-91
2022/11/01 16:59:41;;;;;;;;;;;;;;;;;;6199632;28;20049;-90
2022/11/01 17:02:43;;;;;;;1.88;0.95;;;;;;;;;;6183045;28;19930;-90
2022/11/01 17:05:45;;;;;;;6.38;1.27;;;;;;;;;;6216922;28;20042;-90
2022/11/01 17:08:47;;;;;;;6.63;1.10;;;;;;;;;;6216072;28;20054;-89
2022/11/01 17:11:52;;;;;;;8.40;1.02;;;;;;;;;;6199683;28;20061;-89
2022/11/01 17:14:54;;;;;;;7.43;1.70;;;;;;;;;;6199740;28;20097;-89
2022/11/01 17:18:07;;;;;;;8.98;1.50;;;;;;;;;;6209758;28;20045;-90
2022/11/01 17:21:10;;;;;;;9.57;2.10;;;;;;;;;;6243013;28;20080;-90
2022/11/01 17:24:17;;;;;;;6.10;0.90;;;;;;;;;;6233851;28;20061;-89
2022/11/01 17:27:20;;;;;;;3.78;1.00;;;;;;;;;;6225191;28;20041;-89
2022/11/01 17:30:21;;;;;;;7.90;1.38;;;;;;;;;;6195063;28;20046;-90
2022/11/01 17:33:23;;;;;;;5.50;1.55;;;;;;;;;;6212204;28;20070;-91
2022/11/01 17:36:25;;;;;;;12.00;4.03;;;;;;;;;;6209829;28;20056;-91
2022/11/01 17:39:28;;;;;;;19.00;9.50;;;;;;;;;;6187800;28;20042;-89
2022/11/01 17:42:29;;;;;;;13.80;6.20;;;;;;;;;;6208844;28;20097;-92
2022/11/01 17:45:31;;;;;;;9.63;4.65;;;;;;;;;;6205958;28;20042;-90
2022/11/01 17:48:33;;;;;;;10.93;5.20;;;;;;;;;;6201436;28;20046;-89
2022/11/01 17:51:36;;;;;;;9.77;5.20;;;;;;;;;;6194204;28;20496;-89
2022/11/01 17:54:42;;;;;;;7.65;3.78;;;;;;;;;;6227325;28;20393;-90
2022/11/01 17:57:44;;;;;;;9.23;3.72;;;;;;;;;;6207422;28;20045;-89
2022/11/01 18:00:46;;;;;;;10.95;5.78;;;;;;;;;;6192776;28;20537;-89
2022/11/01 18:03:48;;;;;;;20.10;10.52;;;;;;;;;;6221280;28;20119;-89
2022/11/01 18:06:49;;;;;;;11.13;5.97;;;;;;;;;;6206944;28;20046;-90
2022/11/01 18:09:51;;;;;;;18.88;10.02;;;;;;;;;;6206563;28;20042;-91
2022/11/01 18:13:22;;;;;;;26.17;13.02;;;;;;;;;;6222479;28;20416;-89
2022/11/01 18:16:36;;;;;;;13.98;5.90;;;;;;;;;;6185959;28;20053;-90
2022/11/01 18:19:50;;;;;;;10.63;3.85;;;;;;;;;;6204406;28;20137;-88
2022/11/01 18:22:59;;;;;;;5.07;1.20;;;;;;;;;;6218481;28;20443;-90
2022/11/01 18:26:01;;;;;;;5.25;1.23;;;;;;;;;;6220685;28;20046;-89
2022/11/01 18:29:22;;;;;;;6.30;1.40;;;;;;;;;;6189875;28;20054;-89
2022/11/01 18:32:33;;;;;;;5.75;1.40;;;;;;;;;;6207728;28;20129;-89
2022/11/01 18:35:54;;;;;;;7.07;1.67;;;;;;;;;;6193323;28;20049;-89
2022/11/01 18:39:15;;;;;;;11.80;2.03;;;;;;;;;;6231698;28;20050;-90